Time;durP1;ratioP1;P1;durP2;ratioP2;P2;SDS_P1;SDS_P2;PMS_P1;PMS_P2;Temp;Humidity;BMP_temperature;BMP_pressure;BME280_temperature;BME280_humidity;BME280_pressure;Samples;Min_cycle;Max_cycle;Signal;HPM_P1;HPM_P2
2023/04/12 00:00:10;;;;;;;7.50;3.17;;;5.40;99.90;;;;;;5019046;28;20526;-54
2023/04/12 00:02:37;;;;;;;3.40;2.80;;;5.30;99.90;;;;;;5018996;28;20444;-54
2023/04/12 00:05:08;;;;;;;2.43;2.13;;;5.40;99.90;;;;;;5018406;28;20534;-54
2023/04/12 00:07:37;;;;;;;3.87;3.47;;;5.40;99.90;;;;;;5016901;28;20439;-54
2023/04/12 00:10:05;;;;;;;2.60;2.30;;;5.40;99.90;;;;;;5018308;28;20565;-54
2023/04/12 00:12:32;;;;;;;3.20;2.47;;;5.20;99.90;;;;;;5025476;28;20526;-54
2023/04/12 00:15:00;;;;;;;3.17;2.00;;;4.90;99.90;;;;;;5025054;28;20526;-53
2023/04/12 00:17:27;;;;;;;2.43;1.60;;;4.90;99.90;;;;;;5025429;28;20445;-53
2023/04/12 00:19:54;;;;;;;1.47;0.97;;;4.80;99.90;;;;;;5025392;28;20529;-53
2023/04/12 00:22:23;;;;;;;1.93;0.80;;;4.70;99.90;;;;;;5025096;28;21089;-54
2023/04/12 00:24:50;;;;;;;2.03;1.30;;;5.10;99.90;;;;;;5024285;28;20812;-54
2023/04/12 00:27:17;;;;;;;1.10;0.90;;;5.30;99.90;;;;;;5012791;28;20513;-54
2023/04/12 00:29:43;;;;;;;2.40;1.47;;;5.50;99.90;;;;;;5024209;28;20510;-54
2023/04/12 00:32:10;;;;;;;2.63;2.43;;;5.50;99.90;;;;;;5023666;28;20512;-54
2023/04/12 00:34:37;;;;;;;3.30;2.60;;;5.40;99.90;;;;;;5017149;28;20530;-54
2023/04/12 00:37:04;;;;;;;3.20;1.90;;;5.10;99.90;;;;;;5023265;28;20471;-53
2023/04/12 00:39:32;;;;;;;3.90;2.40;;;4.80;99.90;;;;;;5013992;28;20866;-53
2023/04/12 00:42:03;;;;;;;4.57;3.20;;;4.80;99.90;;;;;;5016986;28;20494;-54
2023/04/12 00:44:31;;;;;;;4.40;2.90;;;5.10;99.90;;;;;;5015853;28;20534;-55
2023/04/12 00:46:59;;;;;;;3.00;2.20;;;5.20;99.90;;;;;;5014741;28;20958;-53
2023/04/12 00:49:29;;;;;;;1.97;1.77;;;5.10;99.90;;;;;;5017263;28;20538;-53
2023/04/12 00:51:58;;;;;;;1.80;1.30;;;5.10;99.90;;;;;;5024224;28;20463;-53
2023/04/12 00:54:25;;;;;;;2.10;1.47;;;5.00;99.90;;;;;;5018127;28;20451;-53
2023/04/12 00:56:56;;;;;;;1.67;1.20;;;5.00;99.90;;;;;;5018582;28;20532;-53
2023/04/12 00:59:23;;;;;;;2.70;2.50;;;4.90;99.90;;;;;;5024399;28;20448;-54
2023/04/12 01:01:51;;;;;;;4.03;2.23;;;4.60;99.90;;;;;;5024618;28;20944;-53
2023/04/12 01:04:21;;;;;;;3.60;2.50;;;4.30;99.90;;;;;;5015482;28;20441;-53
2023/04/12 01:07:02;;;;;;;3.30;2.30;;;4.20;99.90;;;;;;5017355;28;20484;-53
2023/04/12 01:09:35;;;;;;;2.33;1.87;;;4.20;99.90;;;;;;5015872;28;21071;-53
2023/04/12 01:12:13;;;;;;;3.97;2.10;;;4.30;99.90;;;;;;5015497;28;20534;-53
2023/04/12 01:14:46;;;;;;;2.20;2.00;;;4.40;99.90;;;;;;5016848;28;20537;-54
2023/04/12 01:17:21;;;;;;;3.37;2.80;;;4.40;99.90;;;;;;5018070;28;20467;-53
2023/04/12 01:19:57;;;;;;;3.77;2.90;;;4.40;99.90;;;;;;5018362;28;20521;-53
2023/04/12 01:22:58;;;;;;;3.87;2.70;;;4.30;99.90;;;;;;5020218;28;20526;-53
2023/04/12 01:25:40;;;;;;;4.73;3.70;;;4.30;99.90;;;;;;5016153;28;20489;-53
2023/04/12 01:28:11;;;;;;;4.00;2.70;;;4.50;99.90;;;;;;5017940;28;20497;-53
2023/04/12 01:30:39;;;;;;;3.50;2.90;;;4.60;99.90;;;;;;5017841;28;20599;-53
2023/04/12 01:33:09;;;;;;;3.40;2.60;;;4.90;99.90;;;;;;5017873;28;21009;-54
2023/04/12 01:35:37;;;;;;;5.50;3.00;;;4.90;99.90;;;;;;5015226;28;20470;-53
2023/04/12 01:38:05;;;;;;;3.07;2.23;;;5.10;99.90;;;;;;5014687;28;21000;-53
2023/04/12 01:40:33;;;;;;;4.30;2.50;;;5.10;99.90;;;;;;5016555;28;20465;-53
2023/04/12 01:43:10;;;;;;;2.53;1.90;;;5.10;99.90;;;;;;5022881;28;20525;-53
2023/04/12 01:45:37;;;;;;;4.83;1.93;;;4.60;99.90;;;;;;5022859;28;20467;-55
2023/04/12 01:48:06;;;;;;;4.13;2.03;;;4.40;99.90;;;;;;5022608;28;20500;-54
2023/04/12 01:50:41;;;;;;;4.10;3.13;;;4.20;99.90;;;;;;5023705;28;20540;-53
2023/04/12 01:53:13;;;;;;;2.70;2.33;;;4.20;99.90;;;;;;5023366;28;21032;-53
2023/04/12 01:55:44;;;;;;;5.73;2.33;;;4.40;99.90;;;;;;5023376;28;20954;-53
2023/04/12 01:58:14;;;;;;;3.20;2.40;;;4.50;99.90;;;;;;5023736;28;20453;-54
2023/04/12 02:00:44;;;;;;;4.73;2.50;;;4.50;99.90;;;;;;5023610;28;21015;-53
2023/04/12 02:03:12;;;;;;;2.60;2.40;;;4.50;99.90;;;;;;5014248;28;20499;-53
2023/04/12 02:05:39;;;;;;;2.80;2.60;;;4.40;99.90;;;;;;5016647;28;20443;-54
2023/04/12 02:08:07;;;;;;;3.43;2.33;;;4.50;99.90;;;;;;5016860;28;20529;-54
2023/04/12 02:10:35;;;;;;;3.20;2.73;;;4.80;99.90;;;;;;5023156;28;20494;-54
2023/04/12 02:13:03;;;;;;;2.83;2.23;;;5.00;99.90;;;;;;5022823;28;20473;-53
2023/04/12 02:15:32;;;;;;;2.17;1.97;;;4.90;99.90;;;;;;5023830;28;20441;-54
2023/04/12 02:17:59;;;;;;;3.40;3.10;;;4.60;99.90;;;;;;5023780;28;20534;-54
2023/04/12 02:20:26;;;;;;;2.63;2.43;;;4.70;99.90;;;;;;5023477;28;20454;-54
2023/04/12 02:22:53;;;;;;;4.47;2.50;;;4.50;99.90;;;;;;5022270;28;20949;-54
2023/04/12 02:25:20;;;;;;;2.73;2.30;;;4.40;99.90;;;;;;5022674;28;20448;-54
2023/04/12 02:27:47;;;;;;;3.57;2.70;;;4.50;99.90;;;;;;5023429;28;20529;-54
2023/04/12 02:30:15;;;;;;;3.30;2.73;;;4.50;99.90;;;;;;5023890;28;20502;-54
2023/04/12 02:32:47;;;;;;;3.27;2.63;;;4.60;99.90;;;;;;5022179;28;21156;-54
2023/04/12 02:35:16;;;;;;;5.27;2.97;;;4.50;99.90;;;;;;5022858;28;20449;-53
2023/04/12 02:37:45;;;;;;;3.10;2.80;;;4.30;99.90;;;;;;5023606;28;20451;-54
2023/04/12 02:40:14;;;;;;;2.73;2.43;;;4.60;99.90;;;;;;5022890;28;20447;-53
2023/04/12 02:42:41;;;;;;;2.77;2.57;;;4.80;99.90;;;;;;5022912;28;20442;-54
2023/04/12 02:45:09;;;;;;;6.30;3.43;;;4.80;99.90;;;;;;5022750;28;20474;-54
2023/04/12 02:47:36;;;;;;;3.80;3.00;;;4.90;99.90;;;;;;5023700;28;20869;-54
2023/04/12 02:50:06;;;;;;;6.47;4.07;;;4.70;99.90;;;;;;5027240;28;20488;-54
2023/04/12 02:52:33;;;;;;;4.40;3.30;;;4.60;99.90;;;;;;5026666;28;20537;-53
2023/04/12 02:55:00;;;;;;;4.60;3.50;;;4.40;99.90;;;;;;5026753;28;20541;-53
2023/04/12 02:57:27;;;;;;;4.80;3.80;;;4.30;99.90;;;;;;5026270;28;20499;-53
2023/04/12 02:59:54;;;;;;;4.33;3.90;;;4.10;99.90;;;;;;5027358;28;20437;-53
2023/04/12 03:02:22;;;;;;;4.23;3.17;;;4.00;99.90;;;;;;5027599;28;20543;-54
2023/04/12 03:04:50;;;;;;;4.30;3.90;;;4.10;99.90;;;;;;5025922;28;20528;-55
2023/04/12 03:07:19;;;;;;;5.20;3.80;;;4.30;99.90;;;;;;5026539;28;20497;-54
2023/04/12 03:09:47;;;;;;;3.30;3.00;;;4.40;99.90;;;;;;5026328;28;20477;-54
2023/04/12 03:12:15;;;;;;;3.43;3.13;;;4.70;99.90;;;;;;5026221;28;20477;-54
2023/04/12 03:14:42;;;;;;;5.30;3.23;;;4.80;99.90;;;;;;5027617;28;20442;-54
2023/04/12 03:17:09;;;;;;;4.73;3.70;;;4.90;99.90;;;;;;5026945;28;20528;-54
2023/04/12 03:19:36;;;;;;;3.43;2.90;;;4.90;99.90;;;;;;5026705;28;20439;-54
2023/04/12 03:22:03;;;;;;;6.17;4.07;;;5.00;99.90;;;;;;5058611;23;20577;-82
2023/04/12 03:24:33;;;;;;;4.90;4.20;;;5.00;99.90;;;;;;5022607;28;21015;-82
2023/04/12 03:27:01;;;;;;;6.07;4.00;;;5.00;99.90;;;;;;5012727;28;20446;-82
2023/04/12 03:29:28;;;;;;;4.70;3.60;;;5.00;99.90;;;;;;5014656;28;20436;-81
2023/04/12 03:31:56;;;;;;;5.40;3.90;;;5.10;99.90;;;;;;5015032;28;20470;-81
2023/04/12 03:34:26;;;;;;;5.40;4.00;;;5.20;99.90;;;;;;5032861;23;20470;-51
2023/04/12 03:36:54;;;;;;;6.80;4.03;;;5.20;99.90;;;;;;5031962;28;20454;-54
2023/04/12 03:39:21;;;;;;;3.67;3.23;;;5.10;99.90;;;;;;5032540;28;20471;-53
2023/04/12 03:41:49;;;;;;;4.10;3.70;;;4.60;99.90;;;;;;5018769;28;20455;-53
2023/04/12 03:44:16;;;;;;;3.93;3.50;;;4.40;99.90;;;;;;5012747;28;20439;-53
2023/04/12 03:46:43;;;;;;;3.80;3.50;;;4.40;99.90;;;;;;5010922;28;20946;-53
2023/04/12 03:49:10;;;;;;;6.00;4.07;;;4.60;99.90;;;;;;5012747;28;20530;-52
2023/04/12 03:51:41;;;;;;;5.23;3.83;;;4.80;99.90;;;;;;5012414;28;20539;-55
2023/04/12 03:54:08;;;;;;;3.57;2.87;;;4.90;99.90;;;;;;5012480;28;20449;-52
2023/04/12 03:56:37;;;;;;;6.93;4.00;;;5.10;99.90;;;;;;5010396;28;20462;-53
2023/04/12 03:59:06;;;;;;;4.97;4.40;;;5.20;99.90;;;;;;5012099;28;20441;-53
2023/04/12 04:01:33;;;;;;;3.90;3.60;;;5.20;99.90;;;;;;5011348;28;20497;-51
2023/04/12 04:04:00;;;;;;;4.70;4.30;;;5.10;99.90;;;;;;5011886;28;20512;-53
2023/04/12 04:06:28;;;;;;;6.37;3.63;;;4.70;99.90;;;;;;5012280;28;20471;-52
2023/04/12 04:08:55;;;;;;;4.70;3.90;;;4.60;99.90;;;;;;5012282;28;20538;-52
2023/04/12 04:11:22;;;;;;;4.27;3.60;;;4.70;99.90;;;;;;5012305;28;20510;-52
2023/04/12 04:13:49;;;;;;;4.57;4.17;;;4.90;99.90;;;;;;5011800;28;20471;-52
2023/04/12 04:16:17;;;;;;;4.87;4.43;;;5.00;99.90;;;;;;5011788;28;20529;-54
2023/04/12 04:18:44;;;;;;;5.23;3.90;;;5.00;99.90;;;;;;5013131;28;20819;-53
2023/04/12 04:21:13;;;;;;;6.73;4.50;;;5.10;99.90;;;;;;5013092;28;21044;-52
2023/04/12 04:23:43;;;;;;;5.53;5.03;;;5.20;99.90;;;;;;5013256;28;20454;-53
2023/04/12 04:26:12;;;;;;;9.63;6.03;;;5.40;99.90;;;;;;5012734;28;20458;-52
2023/04/12 04:28:41;;;;;;;11.33;7.20;;;5.30;99.90;;;;;;5012726;28;20453;-53
2023/04/12 04:31:09;;;;;;;6.43;5.73;;;5.30;99.90;;;;;;5013013;28;20487;-53
2023/04/12 04:33:38;;;;;;;7.70;5.43;;;5.10;99.90;;;;;;5012143;28;20454;-53
2023/04/12 04:36:06;;;;;;;4.60;4.13;;;5.00;99.90;;;;;;5012575;28;20455;-52
2023/04/12 04:38:34;;;;;;;6.23;5.60;;;5.00;99.90;;;;;;5012830;28;20454;-54
2023/04/12 04:41:02;;;;;;;6.90;6.17;;;5.10;99.90;;;;;;5012425;28;20539;-52
2023/04/12 04:43:29;;;;;;;8.83;6.10;;;5.30;99.90;;;;;;5012695;28;20455;-53
2023/04/12 04:45:57;;;;;;;7.43;5.23;;;5.30;99.90;;;;;;5011956;28;20435;-52
2023/04/12 04:48:24;;;;;;;7.07;5.27;;;4.80;99.90;;;;;;5011372;28;20534;-54
2023/04/12 04:50:52;;;;;;;6.03;5.37;;;4.40;99.90;;;;;;5012307;28;20519;-52
2023/04/12 04:53:21;;;;;;;6.60;5.90;;;4.20;99.90;;;;;;5012559;28;20479;-52
2023/04/12 04:55:48;;;;;;;7.13;6.37;;;4.10;99.90;;;;;;5012355;28;20526;-54
2023/04/12 04:58:16;;;;;;;8.97;6.20;;;4.20;99.90;;;;;;5013098;28;20514;-52
2023/04/12 05:00:44;;;;;;;5.83;5.17;;;4.20;99.90;;;;;;5012089;28;20461;-52
2023/04/12 05:03:11;;;;;;;5.83;4.53;;;4.20;99.90;;;;;;5011943;28;20440;-52
2023/04/12 05:05:38;;;;;;;4.00;3.60;;;4.20;99.90;;;;;;5011591;28;20447;-53
2023/04/12 05:08:07;;;;;;;4.50;3.50;;;4.30;99.90;;;;;;5011763;28;20946;-52
2023/04/12 05:10:34;;;;;;;6.00;3.43;;;4.40;99.90;;;;;;5010347;28;20478;-53
2023/04/12 05:13:01;;;;;;;5.00;3.80;;;4.60;99.90;;;;;;5010196;28;20529;-54
2023/04/12 05:15:27;;;;;;;5.57;5.07;;;4.80;99.90;;;;;;5010599;28;20505;-52
2023/04/12 05:17:54;;;;;;;22.40;16.33;;;5.00;99.90;;;;;;5011165;28;20522;-53
2023/04/12 05:20:21;;;;;;;9.23;7.20;;;5.10;99.90;;;;;;5011747;28;20553;-53
2023/04/12 05:22:48;;;;;;;6.47;5.50;;;5.20;99.90;;;;;;5011523;28;20841;-53
2023/04/12 05:25:18;;;;;;;5.23;4.73;;;5.40;99.90;;;;;;5011360;28;20530;-53
2023/04/12 05:27:45;;;;;;;8.13;5.43;;;5.40;99.90;;;;;;5011919;28;20443;-53
2023/04/12 05:30:13;;;;;;;6.00;5.50;;;5.50;99.90;;;;;;5010691;28;20483;-52
2023/04/12 05:32:40;;;;;;;5.90;5.30;;;5.50;99.90;;;;;;5011087;28;20511;-53
2023/04/12 05:35:07;;;;;;;5.73;5.03;;;5.50;99.90;;;;;;5010950;28;20545;-51
2023/04/12 05:37:34;;;;;;;5.37;4.93;;;5.60;99.90;;;;;;5012218;28;20474;-53
2023/04/12 05:40:01;;;;;;;6.10;5.50;;;5.50;99.90;;;;;;5012044;28;20534;-52
2023/04/12 05:42:30;;;;;;;6.10;5.27;;;5.60;99.90;;;;;;5011953;28;20459;-52
2023/04/12 05:44:56;;;;;;;5.50;4.80;;;5.40;99.90;;;;;;5011625;28;20539;-53
2023/04/12 05:47:23;;;;;;;4.30;3.40;;;5.10;99.90;;;;;;5010643;28;20518;-53
2023/04/12 05:49:50;;;;;;;5.13;4.73;;;4.90;99.90;;;;;;5010978;28;20846;-55
2023/04/12 05:52:17;;;;;;;4.97;4.00;;;4.90;99.90;;;;;;5011155;28;21064;-53
2023/04/12 05:54:44;;;;;;;6.90;6.30;;;5.00;99.90;;;;;;5011409;28;20522;-52
2023/04/12 05:57:11;;;;;;;21.47;16.40;;;5.30;99.90;;;;;;5011189;28;20493;-53
2023/04/12 05:59:40;;;;;;;13.53;9.20;;;5.50;99.90;;;;;;5011601;28;20934;-53
2023/04/12 06:02:07;;;;;;;6.70;6.00;;;5.60;99.90;;;;;;5009930;28;20543;-53
2023/04/12 06:04:34;;;;;;;7.37;6.30;;;5.70;99.90;;;;;;5011319;28;20443;-54
2023/04/12 06:07:02;;;;;;;9.40;5.93;;;5.90;99.90;;;;;;5010936;28;20821;-53
2023/04/12 06:09:29;;;;;;;5.47;4.97;;;5.90;99.90;;;;;;5011180;28;20457;-53
2023/04/12 06:11:56;;;;;;;6.23;5.63;;;5.90;99.90;;;;;;5011211;28;20985;-52
2023/04/12 06:14:23;;;;;;;6.07;4.87;;;5.90;99.90;;;;;;5011395;28;20443;-53
2023/04/12 06:16:51;;;;;;;4.60;4.20;;;5.80;99.90;;;;;;5011009;28;20447;-55
2023/04/12 06:19:18;;;;;;;5.33;4.07;;;5.70;99.90;;;;;;5011210;28;20553;-53
2023/04/12 06:21:45;;;;;;;4.93;4.47;;;5.60;99.90;;;;;;5012290;28;20502;-53
2023/04/12 06:24:12;;;;;;;9.80;6.30;;;5.50;99.90;;;;;;5015292;28;20447;-53
2023/04/12 06:26:41;;;;;;;7.07;5.30;;;5.50;99.90;;;;;;5015110;28;20962;-53
2023/04/12 06:29:08;;;;;;;6.20;5.60;;;5.30;99.90;;;;;;5015345;28;20507;-52
2023/04/12 06:31:35;;;;;;;5.80;5.30;;;5.50;99.90;;;;;;5014538;28;20522;-52
2023/04/12 06:34:04;;;;;;;8.30;5.07;;;5.70;99.90;;;;;;5015724;28;20443;-55
2023/04/12 06:36:31;;;;;;;5.63;4.10;;;5.60;99.90;;;;;;5014798;28;20549;-53
2023/04/12 06:38:57;;;;;;;5.70;4.67;;;5.60;99.90;;;;;;5015268;28;20443;-52
2023/04/12 06:41:25;;;;;;;8.90;5.80;;;5.70;99.90;;;;;;5015169;28;20549;-53
2023/04/12 06:43:52;;;;;;;9.13;5.53;;;5.70;99.90;;;;;;5015297;28;20474;-52
2023/04/12 06:46:26;;;;;;;7.00;5.90;;;5.60;99.90;;;;;;5015077;28;20482;-54
2023/04/12 06:48:53;;;;;;;5.10;4.60;;;5.80;99.90;;;;;;5014283;28;20492;-54
2023/04/12 06:51:21;;;;;;;3.80;3.40;;;5.70;99.90;;;;;;5014859;28;20546;-53
2023/04/12 06:53:48;;;;;;;5.07;4.57;;;5.70;99.90;;;;;;5014659;28;20489;-53
2023/04/12 06:56:15;;;;;;;7.80;4.37;;;5.80;99.90;;;;;;5014510;28;20691;-52
2023/04/12 06:58:42;;;;;;;5.63;5.03;;;5.90;99.90;;;;;;5015242;28;20501;-53
2023/04/12 07:01:10;;;;;;;4.53;4.13;;;5.90;99.90;;;;;;5014698;28;20546;-52
2023/04/12 07:03:37;;;;;;;4.97;4.10;;;6.00;99.90;;;;;;5014618;28;20554;-53
2023/04/12 07:06:05;;;;;;;7.43;5.07;;;6.00;99.90;;;;;;5013977;28;20451;-52
2023/04/12 07:08:36;;;;;;;6.30;5.10;;;5.80;99.90;;;;;;5014747;28;20447;-52
2023/04/12 07:11:03;;;;;;;4.63;4.23;;;5.90;99.90;;;;;;5014695;28;20542;-53
2023/04/12 07:13:30;;;;;;;3.53;3.23;;;6.20;99.90;;;;;;5014332;28;21058;-53
2023/04/12 07:15:59;;;;;;;3.40;3.10;;;6.00;99.90;;;;;;5014236;28;20451;-52
2023/04/12 07:18:26;;;;;;;4.13;3.73;;;6.10;99.90;;;;;;5014460;28;20946;-53
2023/04/12 07:20:55;;;;;;;2.90;2.70;;;6.30;99.90;;;;;;5014260;28;21001;-53
2023/04/12 07:23:22;;;;;;;5.53;4.33;;;6.40;99.90;;;;;;5014289;28;20441;-53
2023/04/12 07:25:51;;;;;;;4.93;4.53;;;6.50;99.90;;;;;;5014339;28;20481;-55
2023/04/12 07:28:20;;;;;;;3.80;3.33;;;6.80;99.90;;;;;;5013982;28;20533;-54
2023/04/12 07:30:46;;;;;;;3.80;3.50;;;6.90;99.90;;;;;;5013722;28;20495;-52
2023/04/12 07:33:13;;;;;;;3.73;3.33;;;6.80;99.90;;;;;;5013065;28;20594;-53
2023/04/12 07:35:40;;;;;;;4.57;3.57;;;6.70;99.90;;;;;;5013891;28;20455;-53
2023/04/12 07:38:07;;;;;;;5.00;3.40;;;6.70;99.90;;;;;;5014158;28;20534;-53
2023/04/12 07:40:34;;;;;;;4.77;3.30;;;7.00;99.90;;;;;;5014313;28;20475;-53
2023/04/12 07:43:02;;;;;;;3.17;2.90;;;7.10;99.90;;;;;;5013956;28;20999;-53
2023/04/12 07:45:29;;;;;;;3.10;2.80;;;7.20;99.90;;;;;;5013587;28;20483;-53
2023/04/12 07:47:56;;;;;;;3.10;2.30;;;7.20;99.90;;;;;;5013408;28;20961;-52
2023/04/12 07:50:23;;;;;;;3.50;2.50;;;7.30;99.90;;;;;;5014074;28;20494;-53
2023/04/12 07:52:50;;;;;;;5.30;2.50;;;7.30;99.90;;;;;;5013731;28;20573;-52
2023/04/12 07:55:17;;;;;;;3.50;2.67;;;7.30;99.90;;;;;;5013610;28;20883;-53
2023/04/12 07:57:44;;;;;;;3.90;2.77;;;7.30;99.90;;;;;;5013749;28;20447;-53
2023/04/12 08:00:13;;;;;;;4.00;3.60;;;7.30;99.90;;;;;;5013466;28;20479;-53
2023/04/12 08:02:40;;;;;;;3.80;2.70;;;7.30;99.90;;;;;;5013302;28;20551;-52
2023/04/12 08:05:08;;;;;;;4.10;2.93;;;7.40;99.90;;;;;;5013446;28;20455;-54
2023/04/12 08:07:35;;;;;;;6.50;4.20;;;7.50;99.90;;;;;;5013174;28;20494;-54
2023/04/12 08:10:01;;;;;;;2.57;2.00;;;7.60;99.90;;;;;;5013498;28;20518;-52
2023/04/12 08:12:28;;;;;;;4.60;2.73;;;7.70;99.90;;;;;;5013203;28;20550;-53
2023/04/12 08:14:55;;;;;;;3.70;3.37;;;7.70;99.90;;;;;;5013463;28;20538;-53
2023/04/12 08:17:27;;;;;;;2.00;1.70;;;7.70;99.90;;;;;;5013167;28;20529;-53
2023/04/12 08:19:54;;;;;;;3.80;2.63;;;7.70;99.90;;;;;;5011450;28;20447;-54
2023/04/12 08:22:21;;;;;;;2.53;2.30;;;7.90;99.90;;;;;;5011036;28;20510;-53
2023/04/12 08:24:48;;;;;;;5.20;2.43;;;7.90;99.90;;;;;;5012303;28;20550;-53
2023/04/12 08:27:15;;;;;;;2.97;2.70;;;7.90;99.90;;;;;;5013033;28;20443;-52
2023/04/12 08:29:42;;;;;;;3.20;2.90;;;8.00;99.90;;;;;;5013229;28;20470;-53
2023/04/12 08:32:11;;;;;;;3.43;3.00;;;8.00;99.90;;;;;;5012167;28;20485;-53
2023/04/12 08:34:39;;;;;;;3.20;2.90;;;7.90;99.90;;;;;;5013054;28;20444;-52
2023/04/12 08:37:06;;;;;;;2.90;2.60;;;7.90;99.90;;;;;;5012809;28;20482;-53
2023/04/12 08:39:33;;;;;;;3.93;3.53;;;7.90;99.90;;;;;;5012432;28;20530;-53
2023/04/12 08:42:01;;;;;;;2.40;2.20;;;8.00;99.90;;;;;;5012612;28;20495;-53
2023/04/12 08:44:36;;;;;;;3.70;2.80;;;8.10;99.90;;;;;;5012437;28;20451;-53
2023/04/12 08:47:04;;;;;;;13.80;9.17;;;8.20;99.90;;;;;;5007242;28;20447;-53
2023/04/12 08:49:31;;;;;;;7.73;7.00;;;8.20;99.90;;;;;;5006340;28;20469;-55
2023/04/12 08:52:04;;;;;;;7.50;4.80;;;8.30;99.90;;;;;;5012178;28;20546;-53
2023/04/12 08:54:31;;;;;;;2.03;1.83;;;8.30;99.90;;;;;;5012371;28;20452;-55
2023/04/12 08:57:00;;;;;;;2.80;2.60;;;8.20;99.90;;;;;;5012341;28;20881;-53
2023/04/12 08:59:28;;;;;;;2.63;2.30;;;8.20;99.90;;;;;;5012537;28;20450;-53
2023/04/12 09:01:56;;;;;;;2.67;2.33;;;8.40;99.90;;;;;;5012134;28;20698;-53
2023/04/12 09:04:23;;;;;;;3.00;2.47;;;8.40;99.90;;;;;;5012462;28;20611;-53
2023/04/12 09:06:50;;;;;;;7.03;4.20;;;8.10;99.90;;;;;;5011472;28;20479;-55
2023/04/12 09:09:18;;;;;;;4.90;3.87;;;8.40;99.90;;;;;;5012217;28;20479;-53
2023/04/12 09:11:45;;;;;;;7.83;3.27;;;8.30;99.90;;;;;;5011932;28;20491;-53
2023/04/12 09:14:22;;;;;;;2.50;2.30;;;8.50;99.90;;;;;;5011898;28;20526;-54
2023/04/12 09:16:49;;;;;;;4.40;3.53;;;8.30;99.90;;;;;;5012049;28;20533;-54
2023/04/12 09:19:30;;;;;;;2.93;2.63;;;8.40;99.90;;;;;;5011160;28;20478;-55
2023/04/12 09:21:57;;;;;;;4.20;2.90;;;8.50;99.90;;;;;;5010623;28;20513;-53
2023/04/12 09:24:25;;;;;;;4.30;3.10;;;8.70;99.90;;;;;;5011641;28;20523;-53
2023/04/12 09:27:02;;;;;;;3.63;2.93;;;8.70;99.90;;;;;;5012089;28;20522;-53
2023/04/12 09:29:30;;;;;;;3.43;2.37;;;8.80;99.90;;;;;;5012213;28;20447;-53
2023/04/12 09:32:00;;;;;;;3.63;2.43;;;8.90;99.90;;;;;;5010605;28;20837;-55
2023/04/12 09:34:27;;;;;;;3.47;2.23;;;8.90;99.90;;;;;;5012066;28;20482;-54
2023/04/12 09:36:54;;;;;;;3.97;2.77;;;8.80;99.90;;;;;;5012117;28;20530;-54
2023/04/12 09:39:32;;;;;;;3.10;2.50;;;8.90;99.90;;;;;;5011605;28;20868;-53
2023/04/12 09:42:07;;;;;;;2.60;2.00;;;8.90;99.90;;;;;;5011458;28;20463;-55
2023/04/12 09:44:34;;;;;;;3.57;2.93;;;9.00;99.90;;;;;;5011588;28;20937;-54
2023/04/12 09:47:03;;;;;;;3.90;2.57;;;9.00;99.90;;;;;;5011503;28;20448;-53
2023/04/12 09:49:40;;;;;;;3.33;2.80;;;9.10;99.90;;;;;;5053476;23;20536;-82
2023/04/12 09:52:07;;;;;;;3.70;3.20;;;8.90;99.90;;;;;;5051664;28;20444;-82
2023/04/12 09:54:42;;;;;;;3.63;3.33;;;8.90;99.90;;;;;;5051923;28;20426;-82
2023/04/12 09:57:09;;;;;;;3.10;2.80;;;9.00;99.90;;;;;;5051158;28;20495;-82
2023/04/12 09:59:39;;;;;;;3.37;2.40;;;9.00;99.90;;;;;;5052822;28;20531;-82
2023/04/12 10:02:16;;;;;;;3.73;2.60;;;8.70;99.90;;;;;;5051224;23;21013;-55
2023/04/12 10:04:44;;;;;;;2.63;2.33;;;8.90;99.90;;;;;;5031463;28;20480;-55
2023/04/12 10:07:11;;;;;;;4.33;3.00;;;9.00;99.90;;;;;;5029473;28;20530;-55
2023/04/12 10:09:41;;;;;;;3.27;2.97;;;9.10;99.90;;;;;;5025884;28;20473;-55
2023/04/12 10:12:10;;;;;;;6.27;3.30;;;9.10;99.90;;;;;;5024989;28;20806;-55
2023/04/12 10:14:37;;;;;;;4.43;3.17;;;9.20;99.90;;;;;;5030898;28;20473;-55
2023/04/12 10:17:05;;;;;;;2.90;2.60;;;9.30;99.90;;;;;;5030878;28;20440;-54
2023/04/12 10:19:33;;;;;;;4.10;2.60;;;9.10;99.90;;;;;;5031237;28;20557;-55
2023/04/12 10:22:00;;;;;;;5.20;2.70;;;8.90;99.90;;;;;;5028730;28;20815;-55
2023/04/12 10:24:28;;;;;;;3.03;2.70;;;8.90;99.90;;;;;;5030897;28;20470;-55
2023/04/12 10:27:01;;;;;;;8.27;3.13;;;9.00;99.90;;;;;;5030227;28;20489;-55
2023/04/12 10:29:29;;;;;;;3.80;2.77;;;9.20;99.90;;;;;;5030648;28;20465;-55
2023/04/12 10:31:58;;;;;;;3.00;2.47;;;9.10;99.90;;;;;;5029321;28;20443;-55
2023/04/12 10:34:28;;;;;;;7.70;3.13;;;9.10;99.90;;;;;;5030006;28;20514;-55
2023/04/12 10:36:58;;;;;;;6.13;3.13;;;9.30;99.90;;;;;;5030085;28;20449;-55
2023/04/12 10:39:39;;;;;;;3.10;2.80;;;9.50;99.90;;;;;;5029499;28;20603;-55
2023/04/12 10:42:26;;;;;;;2.87;2.67;;;9.60;99.90;;;;;;5028436;28;20478;-55
2023/04/12 10:44:55;;;;;;;4.03;3.63;;;9.50;99.90;;;;;;5029371;28;20930;-56
2023/04/12 10:47:57;;;;;;;3.30;3.00;;;9.50;99.90;;;;;;5027889;28;20839;-56
2023/04/12 10:50:26;;;;;;;3.80;3.10;;;9.50;99.90;;;;;;5028565;28;20464;-55
2023/04/12 10:53:21;;;;;;;2.93;2.63;;;9.70;99.90;;;;;;5029917;28;20489;-55
2023/04/12 10:55:48;;;;;;;4.23;3.30;;;9.70;99.90;;;;;;5028773;28;20810;-55
2023/04/12 10:58:49;;;;;;;2.97;2.70;;;9.80;99.90;;;;;;5030020;28;20561;-55
2023/04/12 11:01:17;;;;;;;3.80;2.43;;;9.80;99.90;;;;;;5030252;28;20500;-55
2023/04/12 11:04:20;;;;;;;1.93;1.77;;;9.80;99.90;;;;;;5018142;28;20479;-55
2023/04/12 11:06:56;;;;;;;3.13;2.67;;;10.00;99.90;;;;;;5005804;28;20452;-55
2023/04/12 11:09:25;;;;;;;2.47;2.27;;;10.00;99.90;;;;;;5011024;28;20464;-55
2023/04/12 11:11:58;;;;;;;2.97;2.67;;;10.00;99.90;;;;;;5013077;28;20894;-57
2023/04/12 11:14:29;;;;;;;3.47;2.30;;;9.90;99.90;;;;;;5013641;28;20522;-55
2023/04/12 11:17:26;;;;;;;3.93;2.50;;;10.00;99.90;;;;;;5002837;28;21000;-56
2023/04/12 11:19:58;;;;;;;3.33;2.90;;;10.30;99.90;;;;;;5012177;28;20579;-55
2023/04/12 11:22:30;;;;;;;9.30;2.83;;;10.30;99.90;;;;;;5012272;28;20452;-55
2023/04/12 11:24:58;;;;;;;3.50;2.77;;;10.30;99.90;;;;;;5013680;28;20528;-55
2023/04/12 11:27:27;;;;;;;5.33;3.07;;;10.30;99.90;;;;;;5013668;28;20497;-55
2023/04/12 11:29:56;;;;;;;3.77;2.97;;;10.30;99.90;;;;;;5013821;28;20532;-55
2023/04/12 11:32:25;;;;;;;4.80;3.27;;;10.40;99.90;;;;;;5012691;28;20440;-54
2023/04/12 11:34:54;;;;;;;3.30;3.00;;;10.50;99.90;;;;;;5013588;28;20538;-55
2023/04/12 11:37:22;;;;;;;4.70;3.23;;;10.50;99.90;;;;;;5013836;28;20529;-57
2023/04/12 11:39:52;;;;;;;4.73;3.20;;;10.50;99.90;;;;;;5005127;28;20534;-54
2023/04/12 11:42:22;;;;;;;3.60;3.30;;;10.60;99.90;;;;;;4998983;28;20811;-55
2023/04/12 11:44:50;;;;;;;5.87;3.70;;;10.60;99.90;;;;;;4995550;28;20535;-55
2023/04/12 11:47:19;;;;;;;3.20;2.90;;;10.60;99.90;;;;;;4996534;28;20996;-55
2023/04/12 11:49:47;;;;;;;4.40;3.10;;;10.60;99.90;;;;;;5012324;28;20563;-55
2023/04/12 11:52:17;;;;;;;4.10;3.50;;;10.80;99.90;;;;;;5008512;28;21006;-55
2023/04/12 11:54:45;;;;;;;3.43;2.80;;;10.90;99.90;;;;;;5002751;28;20560;-55
2023/04/12 11:57:14;;;;;;;3.40;3.10;;;10.90;99.90;;;;;;5012904;28;20964;-56
2023/04/12 11:59:43;;;;;;;3.27;2.97;;;10.80;99.90;;;;;;5008208;28;20471;-55
2023/04/12 12:02:11;;;;;;;3.00;2.70;;;10.70;99.90;;;;;;5032123;28;20545;-55
2023/04/12 12:04:40;;;;;;;3.43;3.03;;;10.80;99.90;;;;;;5032547;28;20480;-55
2023/04/12 12:07:07;;;;;;;3.00;2.53;;;10.80;99.90;;;;;;5013914;28;20503;-55
2023/04/12 12:09:36;;;;;;;3.17;2.87;;;10.70;99.90;;;;;;5001755;28;20461;-55
2023/04/12 12:12:03;;;;;;;4.00;3.20;;;10.70;99.90;;;;;;5000968;28;20489;-55
2023/04/12 12:14:35;;;;;;;6.33;3.23;;;10.80;99.90;;;;;;5009965;28;20572;-54
2023/04/12 12:17:02;;;;;;;3.50;2.80;;;10.80;99.90;;;;;;4996298;28;20545;-56
2023/04/12 12:19:31;;;;;;;3.97;3.37;;;10.70;99.90;;;;;;4996707;28;20988;-56
2023/04/12 12:22:11;;;;;;;3.60;3.10;;;10.80;99.90;;;;;;5006388;28;20475;-55
2023/04/12 12:24:44;;;;;;;3.70;3.40;;;10.80;99.90;;;;;;5004847;28;20454;-55
2023/04/12 12:27:11;;;;;;;5.80;3.80;;;10.90;99.90;;;;;;4993327;28;20963;-55
2023/04/12 12:29:38;;;;;;;4.40;4.00;;;10.90;99.90;;;;;;5015668;28;20464;-56
2023/04/12 12:32:12;;;;;;;4.97;3.83;;;11.00;99.90;;;;;;5007873;28;20536;-55
2023/04/12 12:34:40;;;;;;;4.63;4.17;;;11.00;99.90;;;;;;5012701;28;20472;-56
2023/04/12 12:37:09;;;;;;;4.20;3.80;;;11.00;99.90;;;;;;5014402;28;20535;-55
2023/04/12 12:39:37;;;;;;;3.40;3.10;;;11.20;99.90;;;;;;5012235;28;20497;-57
2023/04/12 12:42:06;;;;;;;3.70;3.37;;;11.10;99.90;;;;;;5012035;28;21163;-56
2023/04/12 12:44:33;;;;;;;3.80;3.40;;;11.00;99.90;;;;;;5012690;28;20526;-57
2023/04/12 12:47:01;;;;;;;7.30;4.10;;;11.20;99.90;;;;;;5012779;28;20445;-56
2023/04/12 12:49:28;;;;;;;5.70;3.97;;;11.30;99.90;;;;;;5012889;28;20564;-56
2023/04/12 12:51:55;;;;;;;4.70;4.07;;;11.40;99.90;;;;;;5012439;28;20781;-55
2023/04/12 12:54:22;;;;;;;4.00;3.53;;;11.50;99.90;;;;;;5012644;28;20513;-55
2023/04/12 12:56:49;;;;;;;4.00;3.40;;;11.40;99.90;;;;;;5012318;28;20893;-57
2023/04/12 12:59:17;;;;;;;3.53;3.23;;;11.40;99.90;;;;;;5012809;28;20493;-55
2023/04/12 13:01:44;;;;;;;4.83;3.80;;;11.40;99.90;;;;;;5024564;28;20548;-55
2023/04/12 13:04:11;;;;;;;4.07;3.60;;;11.60;99.90;;;;;;5032185;28;20857;-55